Time;durP1;ratioP1;P1;durP2;ratioP2;P2;SDS_P1;SDS_P2;PMS_P1;PMS_P2;Temp;Humidity;BMP_temperature;BMP_pressure;BME280_temperature;BME280_humidity;BME280_pressure;Samples;Min_cycle;Max_cycle;Signal;HPM_P1;HPM_P2
2023/03/09 00:00:20;;;;;;;42.80;27.55;;;4.20;99.90;;;;;;2074025;28;20033;-73
2023/03/09 00:01:23;;;;;;;44.72;28.27;;;4.10;99.90;;;;;;2078347;28;20626;-73
2023/03/09 00:02:23;;;;;;;42.58;27.88;;;4.10;99.90;;;;;;2071775;28;20044;-72
2023/03/09 00:03:24;;;;;;;44.00;27.80;;;4.20;99.90;;;;;;2064019;28;20122;-74
2023/03/09 00:04:25;;;;;;;43.63;28.17;;;4.20;99.90;;;;;;2084250;28;20033;-73
2023/03/09 00:05:34;;;;;;;42.17;26.33;;;4.10;99.90;;;;;;2078866;28;20471;-73
2023/03/09 00:06:35;;;;;;;41.35;26.80;;;4.20;99.90;;;;;;2064939;28;20029;-73
2023/03/09 00:07:35;;;;;;;46.40;29.00;;;4.10;99.90;;;;;;2072308;28;20037;-74
2023/03/09 00:08:36;;;;;;;43.45;27.63;;;4.20;99.90;;;;;;2078252;28;20118;-73
2023/03/09 00:09:37;;;;;;;43.83;27.55;;;4.20;99.90;;;;;;2069389;28;20565;-73
2023/03/09 00:10:40;;;;;;;41.30;27.05;;;4.10;99.90;;;;;;2080795;28;20029;-74
2023/03/09 00:11:43;;;;;;;40.22;26.90;;;4.10;99.90;;;;;;2071116;28;20029;-74
2023/03/09 00:12:44;;;;;;;41.92;26.63;;;4.10;99.90;;;;;;2080169;28;20575;-75
2023/03/09 00:13:46;;;;;;;42.22;27.52;;;4.10;99.90;;;;;;2069770;28;20029;-74
2023/03/09 00:14:52;;;;;;;40.83;26.75;;;4.10;99.90;;;;;;2077690;28;20033;-74
2023/03/09 00:15:56;;;;;;;41.88;26.67;;;4.10;99.90;;;;;;2083439;28;20083;-74
2023/03/09 00:16:57;;;;;;;42.63;27.45;;;4.10;99.90;;;;;;2085758;28;20097;-74
2023/03/09 00:17:57;;;;;;;44.03;27.52;;;4.10;99.90;;;;;;2073510;28;20037;-73
2023/03/09 00:18:58;;;;;;;43.42;28.00;;;4.10;99.90;;;;;;2077827;28;20040;-74
2023/03/09 00:20:06;;;;;;;44.78;28.48;;;4.10;99.90;;;;;;2070760;28;20419;-74
2023/03/09 00:21:07;;;;;;;46.25;28.95;;;4.20;99.90;;;;;;2075152;28;20112;-73
2023/03/09 00:22:08;;;;;;;46.53;29.20;;;4.20;99.90;;;;;;2071154;28;20068;-74
2023/03/09 00:23:08;;;;;;;45.67;27.98;;;4.20;99.90;;;;;;2073189;28;20483;-74
2023/03/09 00:24:14;;;;;;;45.55;29.02;;;4.20;99.90;;;;;;2062455;28;20026;-73
2023/03/09 00:25:16;;;;;;;44.22;28.25;;;4.10;99.90;;;;;;2081799;28;20275;-74
2023/03/09 00:26:16;;;;;;;44.92;28.52;;;4.10;99.90;;;;;;2076699;28;20059;-73
2023/03/09 00:27:17;;;;;;;44.90;28.83;;;4.20;99.90;;;;;;2079729;28;20531;-74
2023/03/09 00:28:20;;;;;;;45.53;28.38;;;4.10;99.90;;;;;;2084789;28;20074;-74
2023/03/09 00:29:21;;;;;;;45.50;29.05;;;4.10;99.90;;;;;;2070287;28;22209;-74
2023/03/09 00:30:22;;;;;;;46.72;29.38;;;4.20;99.90;;;;;;2070382;28;20310;-73
2023/03/09 00:31:23;;;;;;;45.20;28.83;;;4.10;99.90;;;;;;2065459;28;20038;-73
2023/03/09 00:32:23;;;;;;;44.40;28.70;;;4.10;99.90;;;;;;2071105;28;20026;-72
2023/03/09 00:33:24;;;;;;;46.80;29.30;;;4.10;99.90;;;;;;2062449;28;20935;-73
2023/03/09 00:34:25;;;;;;;45.80;28.98;;;4.20;99.90;;;;;;2059849;28;20035;-75
2023/03/09 00:35:25;;;;;;;44.22;28.55;;;4.20;99.90;;;;;;2078289;28;20056;-73
2023/03/09 00:36:26;;;;;;;46.50;28.92;;;4.20;99.90;;;;;;2087874;28;20499;-73
2023/03/09 00:37:32;;;;;;;47.88;29.95;;;4.20;99.90;;;;;;2077147;28;20256;-74
2023/03/09 00:38:33;;;;;;;45.65;28.75;;;4.20;99.90;;;;;;2078225;28;20401;-73
2023/03/09 00:39:33;;;;;;;46.30;29.38;;;4.20;99.90;;;;;;2068748;28;20442;-73
2023/03/09 00:40:36;;;;;;;43.97;27.88;;;4.20;99.90;;;;;;2065157;28;20120;-74
2023/03/09 00:41:37;;;;;;;45.50;28.85;;;4.20;99.90;;;;;;2061759;28;20033;-74
2023/03/09 00:42:41;;;;;;;46.63;28.77;;;4.20;99.90;;;;;;2070985;28;20017;-74
2023/03/09 00:43:41;;;;;;;45.90;29.35;;;4.20;99.90;;;;;;2076124;28;20025;-73
2023/03/09 00:44:42;;;;;;;45.50;28.98;;;4.20;99.90;;;;;;2081692;28;20025;-73
2023/03/09 00:45:43;;;;;;;46.15;30.13;;;4.20;99.90;;;;;;2081492;28;20033;-74
2023/03/09 00:46:43;;;;;;;46.45;28.60;;;4.20;99.90;;;;;;2068704;28;20550;-73
2023/03/09 00:47:44;;;;;;;47.15;28.95;;;4.20;99.90;;;;;;2075549;28;20834;-74
2023/03/09 00:48:45;;;;;;;45.38;28.92;;;4.20;99.90;;;;;;2072854;28;20033;-73
2023/03/09 00:49:46;;;;;;;48.47;29.13;;;4.20;99.90;;;;;;2073342;28;20039;-74
2023/03/09 00:50:47;;;;;;;47.13;29.58;;;4.20;99.90;;;;;;2081278;28;20029;-75
2023/03/09 00:51:48;;;;;;;45.75;28.77;;;4.20;99.90;;;;;;2075296;28;20100;-74
2023/03/09 00:52:48;;;;;;;46.88;29.17;;;4.20;99.90;;;;;;2078173;28;20802;-74
2023/03/09 00:53:49;;;;;;;49.70;30.83;;;4.20;99.90;;;;;;2064074;28;20520;-75
2023/03/09 00:54:53;;;;;;;45.72;29.02;;;4.30;99.90;;;;;;2062476;28;20045;-75
2023/03/09 00:55:53;;;;;;;46.85;29.05;;;4.20;99.90;;;;;;2073320;28;20619;-73
2023/03/09 00:56:54;;;;;;;46.65;29.23;;;4.20;99.90;;;;;;2075032;28;20036;-73
2023/03/09 00:57:55;;;;;;;44.65;27.90;;;4.20;99.90;;;;;;2075168;28;20030;-74
2023/03/09 00:58:57;;;;;;;44.20;27.83;;;4.20;99.90;;;;;;2078001;28;20026;-74
2023/03/09 00:59:58;;;;;;;43.33;27.27;;;4.20;99.90;;;;;;2072778;28;20104;-75
2023/03/09 01:00:59;;;;;;;42.45;27.33;;;4.20;99.90;;;;;;2073882;28;20041;-73
2023/03/09 01:02:00;;;;;;;41.42;26.50;;;4.20;99.90;;;;;;2088410;28;20525;-74
2023/03/09 01:03:02;;;;;;;42.22;26.00;;;4.20;99.90;;;;;;2076541;28;20064;-74
2023/03/09 01:04:03;;;;;;;43.25;27.20;;;4.20;99.90;;;;;;2062633;28;20037;-74
2023/03/09 01:05:04;;;;;;;40.95;25.95;;;4.20;99.90;;;;;;2079417;28;20025;-75
2023/03/09 01:06:06;;;;;;;39.53;25.90;;;4.30;99.90;;;;;;2068868;28;20037;-75
2023/03/09 01:07:06;;;;;;;41.55;26.17;;;4.30;99.90;;;;;;2068404;28;20068;-80
2023/03/09 01:08:07;;;;;;;41.88;26.77;;;4.20;99.90;;;;;;2069993;28;20046;-78
2023/03/09 01:09:09;;;;;;;42.20;26.67;;;4.20;99.90;;;;;;2069338;28;20021;-79
2023/03/09 01:10:11;;;;;;;42.30;27.27;;;4.30;99.90;;;;;;2085444;28;20035;-79
2023/03/09 01:11:14;;;;;;;41.35;26.35;;;4.20;99.90;;;;;;2072773;28;20029;-79
2023/03/09 01:12:17;;;;;;;42.75;27.30;;;4.20;99.90;;;;;;2064245;28;20040;-80
2023/03/09 01:13:18;;;;;;;42.00;26.17;;;4.20;99.90;;;;;;2071350;28;20469;-80
2023/03/09 01:14:19;;;;;;;39.42;25.23;;;4.30;99.90;;;;;;2062622;28;20031;-79
2023/03/09 01:15:19;;;;;;;39.95;24.75;;;4.30;99.90;;;;;;2071796;28;20025;-78
2023/03/09 01:16:21;;;;;;;39.30;25.20;;;4.20;99.90;;;;;;2081103;28;20025;-79
2023/03/09 01:17:23;;;;;;;37.28;24.42;;;4.30;99.90;;;;;;2067215;28;20034;-77
2023/03/09 01:18:23;;;;;;;40.15;24.90;;;4.20;99.90;;;;;;2067269;28;20230;-78
2023/03/09 01:19:25;;;;;;;37.45;23.80;;;4.20;99.90;;;;;;2079940;28;20248;-78
2023/03/09 01:20:25;;;;;;;38.13;24.00;;;4.20;99.90;;;;;;2076977;28;20572;-77
2023/03/09 01:21:31;;;;;;;37.97;23.75;;;4.20;99.90;;;;;;2082674;28;20116;-77
2023/03/09 01:22:32;;;;;;;36.28;23.10;;;4.20;99.90;;;;;;2076454;28;20611;-79
2023/03/09 01:23:35;;;;;;;37.20;23.70;;;4.20;99.90;;;;;;2071024;28;20033;-77
2023/03/09 01:24:36;;;;;;;34.08;21.92;;;4.20;99.90;;;;;;2073662;28;20025;-77
2023/03/09 01:25:37;;;;;;;35.45;22.73;;;4.20;99.90;;;;;;2064939;28;20620;-77
2023/03/09 01:26:40;;;;;;;34.20;21.85;;;4.20;99.90;;;;;;2072287;28;20034;-78
2023/03/09 01:27:41;;;;;;;31.90;20.27;;;4.20;99.90;;;;;;2077602;28;20276;-77
2023/03/09 01:28:42;;;;;;;31.73;20.83;;;4.20;99.90;;;;;;2077424;28;20038;-77
2023/03/09 01:29:42;;;;;;;32.40;20.85;;;4.20;99.90;;;;;;2082909;28;20064;-77
2023/03/09 01:30:43;;;;;;;33.28;21.00;;;4.20;99.90;;;;;;2081090;28;20078;-78
2023/03/09 01:31:46;;;;;;;32.05;20.33;;;4.20;99.90;;;;;;2081704;28;20036;-77
2023/03/09 01:32:49;;;;;;;32.83;20.88;;;4.20;99.90;;;;;;2089226;28;20125;-77
2023/03/09 01:33:50;;;;;;;31.50;20.42;;;4.20;99.90;;;;;;2078019;28;20052;-76
2023/03/09 01:34:51;;;;;;;30.45;20.17;;;4.20;99.90;;;;;;2076927;28;20026;-78
2023/03/09 01:35:51;;;;;;;32.70;19.90;;;4.10;99.90;;;;;;2070429;28;20156;-78
2023/03/09 01:36:52;;;;;;;31.30;20.42;;;4.20;99.90;;;;;;2076593;28;20413;-77
2023/03/09 01:37:53;;;;;;;32.35;20.80;;;4.10;99.90;;;;;;2063952;28;20783;-78
2023/03/09 01:38:54;;;;;;;32.72;20.65;;;4.10;99.90;;;;;;2080757;28;20031;-77
2023/03/09 01:39:55;;;;;;;32.53;21.00;;;4.20;99.90;;;;;;2074558;28;20087;-77
2023/03/09 01:40:56;;;;;;;30.65;20.15;;;4.10;99.90;;;;;;2068558;28;20568;-78
2023/03/09 01:41:57;;;;;;;33.13;20.95;;;4.20;99.90;;;;;;2078925;28;20048;-77
2023/03/09 01:43:29;;;;;;;31.95;20.45;;;4.20;99.90;;;;;;2082750;28;20021;-78
2023/03/09 01:44:30;;;;;;;36.05;21.95;;;4.20;99.90;;;;;;2070758;28;20409;-77
2023/03/09 01:45:32;;;;;;;31.92;20.30;;;4.20;99.90;;;;;;2060029;28;20095;-76
2023/03/09 01:46:45;;;;;;;32.95;20.73;;;4.10;99.90;;;;;;2074744;28;20034;-76
2023/03/09 01:47:46;;;;;;;33.60;21.08;;;4.10;99.90;;;;;;2075056;28;20033;-76
2023/03/09 01:49:05;;;;;;;35.47;22.23;;;4.10;99.90;;;;;;2068756;28;20022;-76
2023/03/09 01:50:06;;;;;;;34.00;21.80;;;4.10;99.90;;;;;;2079380;28;20104;-77
2023/03/09 01:51:11;;;;;;;34.72;21.63;;;4.10;99.90;;;;;;2093088;28;20090;-76
2023/03/09 01:52:18;;;;;;;36.08;22.15;;;4.10;99.90;;;;;;2077106;28;20087;-76
2023/03/09 01:53:19;;;;;;;33.05;21.60;;;4.10;99.90;;;;;;2077586;28;20031;-76
2023/03/09 01:54:47;;;;;;;33.20;21.17;;;4.10;99.90;;;;;;2073692;28;20532;-77
2023/03/09 01:55:51;;;;;;;35.80;21.85;;;4.20;99.90;;;;;;2067554;28;20051;-78
2023/03/09 01:56:57;;;;;;;34.35;21.67;;;4.10;99.90;;;;;;2065083;28;20030;-76
2023/03/09 01:58:03;;;;;;;33.30;21.30;;;4.10;99.90;;;;;;2077324;28;20508;-76
2023/03/09 01:59:06;;;;;;;32.13;21.10;;;4.10;99.90;;;;;;2088946;28;20032;-77
2023/03/09 02:00:35;;;;;;;32.70;20.45;;;4.10;99.90;;;;;;2082124;28;20385;-76
2023/03/09 02:01:43;;;;;;;34.80;20.95;;;4.10;99.90;;;;;;2084505;28;20567;-77
2023/03/09 02:02:49;;;;;;;33.88;21.27;;;4.10;99.90;;;;;;2074437;28;20531;-77
2023/03/09 02:03:57;;;;;;;32.92;20.02;;;4.10;99.90;;;;;;2073138;28;20037;-77
2023/03/09 02:05:04;;;;;;;33.58;20.05;;;4.10;99.90;;;;;;2070115;28;20981;-76
2023/03/09 02:06:11;;;;;;;32.05;20.25;;;4.10;99.90;;;;;;2069620;28;20408;-77
2023/03/09 02:07:16;;;;;;;30.60;19.55;;;4.10;99.90;;;;;;2068009;28;20690;-77
2023/03/09 02:08:21;;;;;;;29.90;19.55;;;4.10;99.90;;;;;;2073310;28;20022;-76
2023/03/09 02:09:34;;;;;;;32.10;19.70;;;4.10;99.90;;;;;;2072794;28;20034;-77
2023/03/09 02:10:44;;;;;;;30.17;19.35;;;4.10;99.90;;;;;;2082581;28;20031;-79
2023/03/09 02:11:45;;;;;;;28.48;19.15;;;4.10;99.90;;;;;;2086140;28;20037;-76
2023/03/09 02:12:52;;;;;;;32.47;20.40;;;4.10;99.90;;;;;;2079095;28;20112;-78
2023/03/09 02:13:54;;;;;;;31.75;20.73;;;4.00;99.90;;;;;;2052056;28;20038;-77
2023/03/09 02:14:55;;;;;;;31.88;20.75;;;4.10;99.90;;;;;;2072499;28;20659;-77
2023/03/09 02:15:56;;;;;;;32.78;21.20;;;4.10;99.90;;;;;;2068441;28;20064;-77
2023/03/09 02:16:57;;;;;;;32.33;21.00;;;4.10;99.90;;;;;;2065995;28;20508;-77
2023/03/09 02:17:58;;;;;;;31.23;20.88;;;4.10;99.90;;;;;;2066350;28;20400;-76
2023/03/09 02:18:59;;;;;;;30.60;20.27;;;4.10;99.90;;;;;;2066297;28;20042;-78
2023/03/09 02:20:15;;;;;;;33.55;20.45;;;4.10;99.90;;;;;;2076210;28;20049;-77
2023/03/09 02:21:24;;;;;;;31.10;19.63;;;4.10;99.90;;;;;;2077733;28;20021;-77
2023/03/09 02:22:25;;;;;;;31.50;19.33;;;4.10;99.90;;;;;;2077709;28;20025;-77
2023/03/09 02:23:34;;;;;;;29.55;19.30;;;4.10;99.90;;;;;;2063933;28;20655;-78
2023/03/09 02:24:58;;;;;;;29.27;18.77;;;4.10;99.90;;;;;;2076185;28;20037;-78
2023/03/09 02:26:40;;;;;;;30.02;19.35;;;4.10;99.90;;;;;;2081423;28;20510;-78
2023/03/09 02:27:42;;;;;;;28.45;18.33;;;4.10;99.90;;;;;;2078665;28;20392;-78
2023/03/09 02:28:42;;;;;;;29.52;17.98;;;4.10;99.90;;;;;;2065235;28;20133;-76
2023/03/09 02:29:44;;;;;;;28.23;18.70;;;4.10;99.90;;;;;;2066590;28;20056;-78
2023/03/09 02:30:48;;;;;;;28.38;18.38;;;4.10;99.90;;;;;;2068444;28;20029;-78
2023/03/09 02:31:48;;;;;;;27.27;17.77;;;4.10;99.90;;;;;;2074380;28;20033;-78
2023/03/09 02:32:50;;;;;;;28.13;18.55;;;4.10;99.90;;;;;;2072951;28;20025;-77
2023/03/09 02:33:51;;;;;;;27.10;17.63;;;4.10;99.90;;;;;;2074470;28;20033;-77
2023/03/09 02:34:52;;;;;;;27.02;17.35;;;4.10;99.90;;;;;;2066039;28;20088;-76
2023/03/09 02:35:58;;;;;;;26.73;17.98;;;4.10;99.90;;;;;;2082651;28;20028;-77
2023/03/09 02:37:35;;;;;;;27.80;18.05;;;4.10;99.90;;;;;;2082041;28;20411;-77
2023/03/09 02:38:45;;;;;;;28.00;18.23;;;4.10;99.90;;;;;;2040010;28;20034;-77
2023/03/09 02:39:49;;;;;;;27.67;17.38;;;4.10;99.90;;;;;;2039182;28;20035;-77
2023/03/09 02:40:53;;;;;;;27.80;18.55;;;4.10;99.90;;;;;;2051107;28;20560;-76
2023/03/09 02:41:57;;;;;;;29.02;18.70;;;4.10;99.90;;;;;;2074747;28;21017;-77
2023/03/09 02:43:01;;;;;;;26.42;17.63;;;4.10;99.90;;;;;;2082385;28;20039;-78
2023/03/09 02:44:02;;;;;;;27.90;17.60;;;4.10;99.90;;;;;;2078655;28;20538;-78
2023/03/09 02:45:08;;;;;;;28.77;18.20;;;4.10;99.90;;;;;;2063012;28;20018;-77
2023/03/09 02:46:09;;;;;;;28.25;17.75;;;4.10;99.90;;;;;;2078570;28;20586;-78
2023/03/09 02:47:18;;;;;;;29.95;19.48;;;4.20;99.90;;;;;;2076338;28;20040;-77
2023/03/09 02:48:19;;;;;;;29.27;18.75;;;4.10;99.90;;;;;;2085963;28;20028;-77
2023/03/09 02:49:20;;;;;;;27.40;18.13;;;4.20;99.90;;;;;;2079372;28;20724;-77
2023/03/09 02:50:22;;;;;;;28.90;18.35;;;4.20;99.90;;;;;;2077505;28;20135;-77
2023/03/09 02:51:23;;;;;;;27.85;17.88;;;4.10;99.90;;;;;;2079685;28;20024;-78
2023/03/09 02:52:24;;;;;;;27.65;18.05;;;4.10;99.90;;;;;;2064412;28;20583;-77
2023/03/09 02:53:26;;;;;;;27.85;18.52;;;4.20;99.90;;;;;;2068772;28;20049;-78
2023/03/09 02:54:27;;;;;;;29.50;19.00;;;4.20;99.90;;;;;;2066684;28;20092;-78
2023/03/09 02:55:27;;;;;;;29.65;19.38;;;4.20;99.90;;;;;;2074990;28;20029;-77
2023/03/09 02:56:29;;;;;;;29.08;18.33;;;4.20;99.90;;;;;;2071144;28;20505;-77
2023/03/09 02:57:30;;;;;;;30.63;19.02;;;4.20;99.90;;;;;;2079890;28;20021;-76
2023/03/09 02:58:31;;;;;;;29.10;18.60;;;4.20;99.90;;;;;;2080835;28;20032;-77
2023/03/09 02:59:31;;;;;;;28.00;18.50;;;4.20;99.90;;;;;;2089650;28;20092;-77
2023/03/09 03:00:32;;;;;;;28.05;18.15;;;4.20;99.90;;;;;;2090739;28;20410;-77
2023/03/09 03:01:34;;;;;;;26.30;17.08;;;4.20;99.90;;;;;;2076512;28;20116;-77
2023/03/09 03:02:36;;;;;;;25.90;16.98;;;4.20;99.90;;;;;;2079416;28;20366;-77
2023/03/09 03:03:37;;;;;;;28.27;17.52;;;4.30;99.90;;;;;;2090311;28;20047;-77
2023/03/09 03:04:37;;;;;;;26.05;17.13;;;4.20;99.90;;;;;;2090045;28;20660;-77
2023/03/09 03:05:39;;;;;;;25.98;16.83;;;4.20;99.90;;;;;;2082268;28;20035;-77
2023/03/09 03:06:40;;;;;;;26.33;16.85;;;4.30;99.90;;;;;;2077920;28;20021;-77
2023/03/09 03:07:41;;;;;;;25.58;16.88;;;4.30;99.90;;;;;;2088119;28;20186;-77
2023/03/09 03:08:43;;;;;;;26.02;17.17;;;4.30;99.90;;;;;;2077385;28;20159;-76
2023/03/09 03:09:46;;;;;;;26.02;17.15;;;4.30;99.90;;;;;;2073336;28;20098;-77
2023/03/09 03:10:46;;;;;;;27.15;18.08;;;4.30;99.90;;;;;;2079602;28;20342;-77
2023/03/09 03:11:47;;;;;;;28.60;18.20;;;4.30;99.90;;;;;;2082675;28;20029;-77
2023/03/09 03:12:48;;;;;;;26.08;17.60;;;4.30;99.90;;;;;;2092828;28;20450;-77
2023/03/09 03:13:48;;;;;;;26.85;17.75;;;4.30;99.90;;;;;;2081813;28;20620;-77
2023/03/09 03:14:49;;;;;;;27.38;17.35;;;4.30;99.90;;;;;;2082556;28;20658;-77
2023/03/09 03:15:56;;;;;;;30.17;19.35;;;4.30;99.90;;;;;;2082395;28;20056;-77
2023/03/09 03:16:58;;;;;;;27.65;18.20;;;4.30;99.90;;;;;;2083436;28;20040;-77
2023/03/09 03:17:58;;;;;;;30.27;19.23;;;4.20;99.90;;;;;;2074086;28;20513;-78
2023/03/09 03:18:59;;;;;;;29.63;18.88;;;4.30;99.90;;;;;;2084178;28;20032;-77
2023/03/09 03:20:05;;;;;;;31.98;20.23;;;4.30;99.90;;;;;;2076355;28;20025;-77
2023/03/09 03:21:07;;;;;;;29.55;18.65;;;4.20;99.90;;;;;;2081767;28;20492;-77
2023/03/09 03:22:13;;;;;;;31.55;20.77;;;4.20;99.90;;;;;;2084554;28;20102;-78
2023/03/09 03:23:13;;;;;;;29.02;19.15;;;4.20;99.90;;;;;;2082429;28;20120;-77
2023/03/09 03:24:22;;;;;;;32.15;20.45;;;4.20;99.90;;;;;;2076208;28;20095;-77
2023/03/09 03:25:22;;;;;;;29.52;19.20;;;4.30;99.90;;;;;;2089320;28;20265;-78
2023/03/09 03:26:25;;;;;;;30.15;19.70;;;4.30;99.90;;;;;;2080513;28;20455;-77
2023/03/09 03:27:28;;;;;;;32.17;20.33;;;4.20;99.90;;;;;;2084591;28;20044;-78
2023/03/09 03:28:29;;;;;;;34.42;20.83;;;4.20;99.90;;;;;;2074032;28;20492;-78
2023/03/09 03:29:37;;;;;;;32.65;20.85;;;4.20;99.90;;;;;;2079903;28;20076;-78
2023/03/09 03:30:38;;;;;;;31.15;18.73;;;4.20;99.90;;;;;;2090522;28;20538;-78
2023/03/09 03:31:39;;;;;;;28.15;18.65;;;4.30;99.90;;;;;;2092556;28;20056;-77
2023/03/09 03:32:40;;;;;;;30.05;19.08;;;4.30;99.90;;;;;;2078958;28;20025;-78
2023/03/09 03:33:41;;;;;;;29.95;19.02;;;4.20;99.90;;;;;;2069231;28;20022;-78
2023/03/09 03:34:41;;;;;;;29.08;18.58;;;4.20;99.90;;;;;;2074150;28;20017;-78
2023/03/09 03:35:42;;;;;;;28.92;18.88;;;4.20;99.90;;;;;;2082090;28;20056;-79
2023/03/09 03:36:43;;;;;;;33.38;21.17;;;4.20;99.90;;;;;;2080222;28;20029;-77
2023/03/09 03:37:44;;;;;;;35.50;21.60;;;4.30;99.90;;;;;;2083025;28;20507;-77
2023/03/09 03:38:45;;;;;;;32.80;20.92;;;4.20;99.90;;;;;;2081596;28;20028;-77
2023/03/09 03:39:45;;;;;;;33.03;21.30;;;4.20;99.90;;;;;;2074297;28;20045;-77
2023/03/09 03:40:47;;;;;;;33.60;21.73;;;4.20;99.90;;;;;;2075915;28;20029;-77
2023/03/09 03:41:48;;;;;;;34.50;20.90;;;4.20;99.90;;;;;;2082449;28;20041;-77
2023/03/09 03:42:51;;;;;;;34.30;21.23;;;4.30;99.90;;;;;;2082402;28;20107;-77
2023/03/09 03:43:52;;;;;;;36.15;22.13;;;4.30;99.90;;;;;;2082299;28;20973;-77
2023/03/09 03:44:53;;;;;;;33.92;22.40;;;4.30;99.90;;;;;;2075297;28;20031;-76
2023/03/09 03:45:54;;;;;;;35.42;21.90;;;4.30;99.90;;;;;;2074702;28;20021;-77
2023/03/09 03:46:57;;;;;;;37.80;22.83;;;4.20;99.90;;;;;;2087513;28;20056;-76
2023/03/09 03:47:59;;;;;;;36.08;22.55;;;4.20;99.90;;;;;;2079849;28;20115;-77
2023/03/09 03:49:00;;;;;;;38.97;24.15;;;4.20;99.90;;;;;;2081531;28;20517;-76
2023/03/09 03:50:02;;;;;;;41.15;25.38;;;4.20;99.90;;;;;;2080320;28;20029;-77
2023/03/09 03:51:05;;;;;;;40.20;24.65;;;4.20;99.90;;;;;;2090130;28;20020;-76
2023/03/09 03:52:07;;;;;;;37.65;23.50;;;4.20;99.90;;;;;;2083957;28;20109;-77
2023/03/09 03:53:08;;;;;;;41.35;25.10;;;4.20;99.90;;;;;;2079610;28;20132;-77
2023/03/09 03:54:09;;;;;;;42.10;25.90;;;4.10;99.90;;;;;;2081542;28;20037;-78
2023/03/09 03:55:09;;;;;;;42.67;25.75;;;4.10;99.90;;;;;;2081635;28;20021;-77
2023/03/09 03:56:11;;;;;;;39.55;24.40;;;4.10;99.90;;;;;;2079648;28;20043;-76
2023/03/09 03:57:14;;;;;;;42.25;25.63;;;4.00;99.90;;;;;;2082343;28;20060;-77
2023/03/09 03:58:15;;;;;;;41.83;25.50;;;4.00;99.90;;;;;;2092077;28;20020;-76
2023/03/09 03:59:17;;;;;;;38.75;24.58;;;4.00;99.90;;;;;;2081876;28;20164;-76
2023/03/09 04:00:19;;;;;;;40.83;24.75;;;4.00;99.90;;;;;;2076038;28;20135;-77
2023/03/09 04:01:20;;;;;;;42.90;26.63;;;4.00;99.90;;;;;;2078686;28;20080;-76
2023/03/09 04:02:24;;;;;;;41.40;25.48;;;4.00;99.90;;;;;;2076722;28;20044;-77
2023/03/09 04:03:25;;;;;;;42.88;25.33;;;3.90;99.90;;;;;;2078743;28;20053;-76
2023/03/09 04:04:26;;;;;;;42.03;24.40;;;3.90;99.90;;;;;;2080190;28;20033;-76
2023/03/09 04:05:33;;;;;;;37.20;22.88;;;3.80;99.90;;;;;;2088028;28;20463;-76
2023/03/09 04:06:35;;;;;;;37.20;22.95;;;3.80;99.90;;;;;;2090485;28;20033;-75
2023/03/09 04:07:35;;;;;;;37.83;22.77;;;3.80;99.90;;;;;;2087182;28;20406;-77
2023/03/09 04:08:36;;;;;;;37.42;22.35;;;3.80;99.90;;;;;;2090284;28;20031;-77
2023/03/09 04:09:37;;;;;;;36.65;23.17;;;3.80;99.90;;;;;;2086417;28;20526;-78
2023/03/09 04:10:39;;;;;;;36.55;21.88;;;3.80;99.90;;;;;;2081793;28;20064;-78
2023/03/09 04:11:41;;;;;;;33.80;21.45;;;3.70;99.90;;;;;;2082001;28;20478;-77
2023/03/09 04:12:43;;;;;;;34.45;21.15;;;3.70;99.90;;;;;;2083839;28;20055;-79
2023/03/09 04:13:49;;;;;;;34.70;21.10;;;3.70;99.90;;;;;;2072228;28;20056;-78
2023/03/09 04:14:50;;;;;;;34.03;20.77;;;3.70;99.90;;;;;;2074881;28;20030;-76
2023/03/09 04:15:51;;;;;;;32.40;20.27;;;3.70;99.90;;;;;;2089992;28;20020;-77
2023/03/09 04:16:53;;;;;;;32.20;20.45;;;3.70;99.90;;;;;;2081650;28;20040;-78
2023/03/09 04:17:54;;;;;;;33.78;20.90;;;3.70;99.90;;;;;;2090539;28;20098;-76
2023/03/09 04:18:55;;;;;;;31.88;20.10;;;3.60;99.90;;;;;;2075487;28;20055;-77
2023/03/09 04:19:57;;;;;;;32.00;20.05;;;3.60;99.90;;;;;;2073760;28;20056;-77
2023/03/09 04:20:58;;;;;;;31.25;19.88;;;3.60;99.90;;;;;;2083607;28;20123;-76
2023/03/09 04:21:58;;;;;;;33.92;21.13;;;3.60;99.90;;;;;;2072988;28;20025;-76
2023/03/09 04:22:59;;;;;;;33.03;20.08;;;3.60;99.90;;;;;;2069055;28;20030;-76
2023/03/09 04:24:01;;;;;;;31.88;19.83;;;3.60;99.90;;;;;;2081983;28;20039;-78
2023/03/09 04:25:02;;;;;;;32.55;20.13;;;3.60;99.90;;;;;;2091830;28;20399;-77
2023/03/09 04:26:04;;;;;;;30.33;19.42;;;3.60;99.90;;;;;;2084898;28;20040;-76
2023/03/09 04:27:17;;;;;;;33.67;19.48;;;3.60;99.90;;;;;;2074588;28;20052;-76
2023/03/09 04:28:24;;;;;;;29.63;19.15;;;3.60;99.90;;;;;;2089687;28;20068;-76
2023/03/09 04:29:26;;;;;;;33.13;20.63;;;3.50;99.90;;;;;;2082009;28;20029;-77
2023/03/09 04:30:27;;;;;;;34.08;20.70;;;3.50;99.90;;;;;;2081790;28;20124;-77
2023/03/09 04:31:31;;;;;;;32.95;20.75;;;3.50;99.90;;;;;;2081660;28;20025;-77
2023/03/09 04:32:32;;;;;;;33.40;20.80;;;3.50;99.90;;;;;;2088971;28;20032;-78
2023/03/09 04:33:42;;;;;;;34.20;21.00;;;3.50;99.90;;;;;;2097714;28;20024;-79
2023/03/09 04:34:44;;;;;;;35.38;20.77;;;3.50;99.90;;;;;;2089560;28;20457;-78
2023/03/09 04:35:45;;;;;;;33.03;19.85;;;3.50;99.90;;;;;;2079596;28;20569;-77
2023/03/09 04:36:52;;;;;;;32.60;19.95;;;3.50;99.90;;;;;;2086829;28;20028;-77
2023/03/09 04:37:54;;;;;;;34.97;20.75;;;3.40;99.90;;;;;;2089748;28;20033;-78
2023/03/09 04:38:55;;;;;;;32.70;19.70;;;3.40;99.90;;;;;;2085157;28;20101;-78
2023/03/09 04:39:58;;;;;;;33.42;20.02;;;3.40;99.90;;;;;;2089841;28;20036;-78
2023/03/09 04:40:58;;;;;;;35.55;20.98;;;3.40;99.90;;;;;;2083888;28;20492;-79
2023/03/09 04:42:00;;;;;;;32.03;19.52;;;3.40;99.90;;;;;;2073583;28;20028;-78
2023/03/09 04:43:02;;;;;;;34.38;20.00;;;3.40;99.90;;;;;;2081079;28;20228;-78
2023/03/09 04:44:03;;;;;;;34.65;20.33;;;3.40;99.90;;;;;;2089922;28;20071;-77
2023/03/09 04:45:04;;;;;;;33.42;19.90;;;3.40;99.90;;;;;;2078301;28;20076;-80
2023/03/09 04:46:05;;;;;;;33.40;20.13;;;3.40;99.90;;;;;;2079415;28;20089;-77
2023/03/09 04:47:06;;;;;;;33.05;20.15;;;3.40;99.90;;;;;;2073136;28;20570;-78
2023/03/09 04:48:08;;;;;;;33.45;20.65;;;3.40;99.90;;;;;;2072145;28;20531;-78
2023/03/09 04:49:10;;;;;;;34.17;20.60;;;3.40;99.90;;;;;;2073559;28;20364;-78
2023/03/09 04:50:13;;;;;;;36.70;21.70;;;3.40;99.90;;;;;;2078569;28;20028;-78
2023/03/09 04:51:21;;;;;;;44.80;22.20;;;3.40;99.90;;;;;;2081343;28;20020;-78
2023/03/09 04:52:26;;;;;;;37.13;21.13;;;3.40;99.90;;;;;;2075547;28;20079;-79
2023/03/09 04:53:28;;;;;;;36.85;21.23;;;3.40;99.90;;;;;;2079020;28;20078;-78
2023/03/09 04:54:29;;;;;;;34.78;20.77;;;3.40;99.90;;;;;;2089763;28;20515;-77
2023/03/09 04:55:30;;;;;;;36.95;20.80;;;3.30;99.90;;;;;;2081479;28;20086;-78
2023/03/09 04:56:33;;;;;;;37.85;21.42;;;3.30;99.90;;;;;;2081648;28;20036;-77
2023/03/09 04:57:39;;;;;;;36.47;21.42;;;3.30;99.90;;;;;;2084003;28;20102;-78
2023/03/09 04:58:40;;;;;;;37.40;21.50;;;3.30;99.90;;;;;;2089626;28;20034;-78
2023/03/09 04:59:41;;;;;;;42.05;22.52;;;3.30;99.90;;;;;;2072994;28;20029;-78
2023/03/09 05:00:42;;;;;;;37.40;21.05;;;3.30;99.90;;;;;;2077241;28;22903;-76
2023/03/09 05:01:45;;;;;;;36.25;20.70;;;3.30;99.90;;;;;;2089509;28;20063;-77
2023/03/09 05:02:50;;;;;;;38.25;21.85;;;3.30;99.90;;;;;;2086832;28;20044;-77
2023/03/09 05:03:52;;;;;;;40.08;22.27;;;3.30;99.90;;;;;;2079403;28;20029;-77
2023/03/09 05:04:53;;;;;;;38.67;21.27;;;3.30;99.90;;;;;;2092546;28;20404;-78
2023/03/09 05:05:54;;;;;;;38.13;21.30;;;3.30;99.90;;;;;;2090203;28;20043;-78
2023/03/09 05:06:59;;;;;;;37.13;21.00;;;3.30;99.90;;;;;;2090674;28;20111;-78
2023/03/09 05:08:01;;;;;;;38.90;20.92;;;3.30;99.90;;;;;;2089575;28;20597;-77
2023/03/09 05:09:04;;;;;;;36.78;20.85;;;3.30;99.90;;;;;;2080129;28;20029;-85
2023/03/09 05:10:06;;;;;;;37.28;21.60;;;3.30;99.90;;;;;;2073437;28;20104;-77
2023/03/09 05:11:08;;;;;;;39.35;21.75;;;3.30;99.90;;;;;;2071559;28;20026;-78
2023/03/09 05:12:09;;;;;;;39.35;21.23;;;3.30;99.90;;;;;;2069298;28;20524;-84
2023/03/09 05:13:13;;;;;;;38.88;21.17;;;3.30;99.90;;;;;;2076608;28;20021;-77
2023/03/09 05:14:15;;;;;;;39.47;22.15;;;3.30;99.90;;;;;;2075643;28;20431;-77
2023/03/09 05:15:15;;;;;;;41.45;22.33;;;3.30;99.90;;;;;;2083372;28;20033;-78
2023/03/09 05:16:16;;;;;;;42.60;23.30;;;3.30;99.90;;;;;;2073075;28;20037;-78
2023/03/09 05:17:19;;;;;;;40.20;21.67;;;3.30;99.90;;;;;;2081447;28;20112;-75
2023/03/09 05:18:19;;;;;;;41.28;21.95;;;3.30;99.90;;;;;;2081186;28;20321;-74
2023/03/09 05:19:22;;;;;;;40.22;21.85;;;3.30;99.90;;;;;;2081566;28;20057;-73
2023/03/09 05:20:27;;;;;;;39.80;21.42;;;3.30;99.90;;;;;;2079081;28;20033;-73
2023/03/09 05:21:33;;;;;;;39.80;21.33;;;3.30;99.90;;;;;;2080321;28;20094;-73
2023/03/09 05:22:37;;;;;;;37.75;21.33;;;3.30;99.90;;;;;;2083312;28;20075;-73